sensor_id;sensor_type;location;lat;lon;timestamp;temperature;humidity
31307;DHT22;17935;51.120;13.132;2024-01-15T03:05:07;1.30;99.90
31307;DHT22;17935;51.120;13.132;2024-01-15T05:09:27;0.60;99.90
31307;DHT22;17935;51.120;13.132;2024-01-15T05:11:54;0.60;99.90
31307;DHT22;17935;51.120;13.132;2024-01-15T05:14:25;0.60;99.90
31307;DHT22;17935;51.120;13.132;2024-01-15T05:16:53;0.60;99.90
31307;DHT22;17935;51.120;13.132;2024-01-15T05:19:18;0.60;99.90
31307;DHT22;17935;51.120;13.132;2024-01-15T05:21:44;0.60;99.90
31307;DHT22;17935;51.120;13.132;2024-01-15T05:24:09;0.60;99.90
31307;DHT22;17935;51.120;13.132;2024-01-15T05:26:35;0.60;99.90
31307;DHT22;17935;51.120;13.132;2024-01-15T05:29:00;0.50;99.90
31307;DHT22;17935;51.120;13.132;2024-01-15T05:31:26;0.50;99.90
31307;DHT22;17935;51.120;13.132;2024-01-15T05:33:51;0.40;99.90
31307;DHT22;17935;51.120;13.132;2024-01-15T05:36:16;0.40;99.90
31307;DHT22;17935;51.120;13.132;2024-01-15T05:38:42;0.40;99.90
31307;DHT22;17935;51.120;13.132;2024-01-15T05:41:07;0.40;99.90
31307;DHT22;17935;51.120;13.132;2024-01-15T05:43:33;0.50;99.90
31307;DHT22;17935;51.120;13.132;2024-01-15T05:45:58;0.50;99.90
31307;DHT22;17935;51.120;13.132;2024-01-15T05:48:23;0.50;99.90
31307;DHT22;17935;51.120;13.132;2024-01-15T05:50:49;0.50;99.90
31307;DHT22;17935;51.120;13.132;2024-01-15T05:53:14;0.60;99.90
31307;DHT22;17935;51.120;13.132;2024-01-15T05:55:40;0.60;99.90
31307;DHT22;17935;51.120;13.132;2024-01-15T05:58:05;0.60;99.90
31307;DHT22;17935;51.120;13.132;2024-01-15T06:00:31;0.60;99.90
31307;DHT22;17935;51.120;13.132;2024-01-15T06:02:58;0.60;99.90
31307;DHT22;17935;51.120;13.132;2024-01-15T06:05:24;0.60;99.90
31307;DHT22;17935;51.120;13.132;2024-01-15T06:07:49;0.60;99.90
31307;DHT22;17935;51.120;13.132;2024-01-15T06:10:15;0.60;99.90
31307;DHT22;17935;51.120;13.132;2024-01-15T06:12:40;0.60;99.90
31307;DHT22;17935;51.120;13.132;2024-01-15T06:15:06;0.60;99.90
31307;DHT22;17935;51.120;13.132;2024-01-15T06:17:31;0.60;99.90
31307;DHT22;17935;51.120;13.132;2024-01-15T06:19:56;0.60;99.90
31307;DHT22;17935;51.120;13.132;2024-01-15T06:22:23;0.60;99.90
31307;DHT22;17935;51.120;13.132;2024-01-15T06:24:48;0.60;99.90
31307;DHT22;17935;51.120;13.132;2024-01-15T06:27:13;0.60;99.90
31307;DHT22;17935;51.120;13.132;2024-01-15T06:29:39;0.60;99.90
31307;DHT22;17935;51.120;13.132;2024-01-15T06:32:09;0.60;99.90
31307;DHT22;17935;51.120;13.132;2024-01-15T06:34:35;0.60;99.90
31307;DHT22;17935;51.120;13.132;2024-01-15T06:37:00;0.50;99.90
31307;DHT22;17935;51.120;13.132;2024-01-15T06:39:26;0.50;99.90
31307;DHT22;17935;51.120;13.132;2024-01-15T06:41:51;0.50;99.90
31307;DHT22;17935;51.120;13.132;2024-01-15T06:44:17;0.40;99.90
31307;DHT22;17935;51.120;13.132;2024-01-15T06:46:42;0.40;99.90
31307;DHT22;17935;51.120;13.132;2024-01-15T06:49:08;0.40;99.90
31307;DHT22;17935;51.120;13.132;2024-01-15T06:51:33;0.30;99.90
31307;DHT22;17935;51.120;13.132;2024-01-15T06:53:59;0.30;99.90
31307;DHT22;17935;51.120;13.132;2024-01-15T06:56:24;0.30;99.90
31307;DHT22;17935;51.120;13.132;2024-01-15T06:58:50;0.40;99.90
31307;DHT22;17935;51.120;13.132;2024-01-15T07:01:15;0.40;99.90
31307;DHT22;17935;51.120;13.132;2024-01-15T07:03:41;0.40;99.90
31307;DHT22;17935;51.120;13.132;2024-01-15T07:06:06;0.50;99.90
31307;DHT22;17935;51.120;13.132;2024-01-15T07:08:32;0.50;99.90
31307;DHT22;17935;51.120;13.132;2024-01-15T07:10:57;0.50;99.90
31307;DHT22;17935;51.120;13.132;2024-01-15T07:13:23;0.50;99.90
31307;DHT22;17935;51.120;13.132;2024-01-15T07:15:48;0.50;99.90
31307;DHT22;17935;51.120;13.132;2024-01-15T07:18:14;0.60;99.90
31307;DHT22;17935;51.120;13.132;2024-01-15T07:20:39;0.60;99.90
31307;DHT22;17935;51.120;13.132;2024-01-15T07:23:05;0.60;99.90
31307;DHT22;17935;51.120;13.132;2024-01-15T07:25:30;0.60;99.90
31307;DHT22;17935;51.120;13.132;2024-01-15T07:27:55;0.60;99.90
31307;DHT22;17935;51.120;13.132;2024-01-15T07:30:21;0.60;99.90
31307;DHT22;17935;51.120;13.132;2024-01-15T07:32:47;0.60;99.90
31307;DHT22;17935;51.120;13.132;2024-01-15T07:35:13;0.70;99.90
31307;DHT22;17935;51.120;13.132;2024-01-15T07:37:40;0.70;99.90
31307;DHT22;17935;51.120;13.132;2024-01-15T07:40:05;0.70;99.90
31307;DHT22;17935;51.120;13.132;2024-01-15T07:42:33;0.60;99.90
31307;DHT22;17935;51.120;13.132;2024-01-15T07:44:58;0.60;99.90
31307;DHT22;17935;51.120;13.132;2024-01-15T07:47:24;0.60;99.90
31307;DHT22;17935;51.120;13.132;2024-01-15T07:49:49;0.50;99.90
31307;DHT22;17935;51.120;13.132;2024-01-15T07:52:17;0.40;99.90
31307;DHT22;17935;51.120;13.132;2024-01-15T07:54:42;0.40;99.90
31307;DHT22;17935;51.120;13.132;2024-01-15T07:57:08;0.30;99.90
31307;DHT22;17935;51.120;13.132;2024-01-15T07:59:34;0.20;99.90
31307;DHT22;17935;51.120;13.132;2024-01-15T08:02:00;0.20;99.90
31307;DHT22;17935;51.120;13.132;2024-01-15T08:04:25;0.10;99.90
31307;DHT22;17935;51.120;13.132;2024-01-15T08:06:51;0.10;99.90
31307;DHT22;17935;51.120;13.132;2024-01-15T08:09:16;0.10;99.90
31307;DHT22;17935;51.120;13.132;2024-01-15T08:11:42;0.10;99.90
31307;DHT22;17935;51.120;13.132;2024-01-15T08:14:08;0.10;99.90
31307;DHT22;17935;51.120;13.132;2024-01-15T08:16:33;0.00;99.90
31307;DHT22;17935;51.120;13.132;2024-01-15T08:18:59;0.10;99.90
31307;DHT22;17935;51.120;13.132;2024-01-15T08:21:24;0.10;99.90
31307;DHT22;17935;51.120;13.132;2024-01-15T08:23:50;0.30;99.90
31307;DHT22;17935;51.120;13.132;2024-01-15T08:26:16;0.40;99.90
31307;DHT22;17935;51.120;13.132;2024-01-15T08:28:41;0.50;99.90
31307;DHT22;17935;51.120;13.132;2024-01-15T08:31:07;0.60;99.90
31307;DHT22;17935;51.120;13.132;2024-01-15T08:33:32;0.70;99.90
31307;DHT22;17935;51.120;13.132;2024-01-15T08:35:57;0.70;99.90
31307;DHT22;17935;51.120;13.132;2024-01-15T08:38:23;0.50;99.90
31307;DHT22;17935;51.120;13.132;2024-01-15T08:40:49;0.40;99.90
31307;DHT22;17935;51.120;13.132;2024-01-15T08:43:14;0.40;99.90
31307;DHT22;17935;51.120;13.132;2024-01-15T08:45:40;0.40;99.90
31307;DHT22;17935;51.120;13.132;2024-01-15T08:48:06;0.50;99.90
31307;DHT22;17935;51.120;13.132;2024-01-15T08:50:32;0.60;99.90
31307;DHT22;17935;51.120;13.132;2024-01-15T08:53:01;0.60;99.90
31307;DHT22;17935;51.120;13.132;2024-01-15T08:55:31;0.90;99.90
31307;DHT22;17935;51.120;13.132;2024-01-15T08:57:57;1.30;99.90
31307;DHT22;17935;51.120;13.132;2024-01-15T09:00:22;2.00;96.50
31307;DHT22;17935;51.120;13.132;2024-01-15T09:02:48;2.10;94.40
31307;DHT22;17935;51.120;13.132;2024-01-15T09:05:13;2.20;94.00
31307;DHT22;17935;51.120;13.132;2024-01-15T09:07:39;2.20;93.50
31307;DHT22;17935;51.120;13.132;2024-01-15T09:10:07;2.10;93.20
31307;DHT22;17935;51.120;13.132;2024-01-15T09:12:33;2.10;93.20
31307;DHT22;17935;51.120;13.132;2024-01-15T09:14:59;2.30;92.50
31307;DHT22;17935;51.120;13.132;2024-01-15T09:17:24;2.30;92.30
31307;DHT22;17935;51.120;13.132;2024-01-15T09:19:52;2.10;92.10
31307;DHT22;17935;51.120;13.132;2024-01-15T09:22:17;2.20;92.20
31307;DHT22;17935;51.120;13.132;2024-01-15T09:24:44;2.20;92.00
31307;DHT22;17935;51.120;13.132;2024-01-15T09:27:10;2.50;92.00
31307;DHT22;17935;51.120;13.132;2024-01-15T09:29:35;3.20;91.70
31307;DHT22;17935;51.120;13.132;2024-01-15T09:32:05;4.20;85.80
31307;DHT22;17935;51.120;13.132;2024-01-15T09:34:31;4.30;83.50
31307;DHT22;17935;51.120;13.132;2024-01-15T09:36:56;4.00;83.30
31307;DHT22;17935;51.120;13.132;2024-01-15T09:39:22;4.20;83.80
31307;DHT22;17935;51.120;13.132;2024-01-15T09:41:48;4.60;82.70
31307;DHT22;17935;51.120;13.132;2024-01-15T09:44:14;5.00;79.30
31307;DHT22;17935;51.120;13.132;2024-01-15T09:46:41;5.10;78.00
31307;DHT22;17935;51.120;13.132;2024-01-15T09:49:08;4.80;78.50
31307;DHT22;17935;51.120;13.132;2024-01-15T09:51:34;4.40;79.20
31307;DHT22;17935;51.120;13.132;2024-01-15T09:54:00;4.20;80.10
31307;DHT22;17935;51.120;13.132;2024-01-15T09:56:26;4.10;80.10
31307;DHT22;17935;51.120;13.132;2024-01-15T09:58:52;4.90;79.80
31307;DHT22;17935;51.120;13.132;2024-01-15T10:01:19;5.60;76.70
31307;DHT22;17935;51.120;13.132;2024-01-15T10:03:46;5.70;75.80
31307;DHT22;17935;51.120;13.132;2024-01-15T10:06:14;5.50;75.00
31307;DHT22;17935;51.120;13.132;2024-01-15T10:08:43;5.10;76.10
31307;DHT22;17935;51.120;13.132;2024-01-15T10:11:14;4.80;77.30
31307;DHT22;17935;51.120;13.132;2024-01-15T10:16:51;4.80;76.60
31307;DHT22;17935;51.120;13.132;2024-01-15T10:19:16;4.40;78.10
31307;DHT22;17935;51.120;13.132;2024-01-15T10:21:42;4.20;79.00
31307;DHT22;17935;51.120;13.132;2024-01-15T10:24:07;4.00;79.10
31307;DHT22;17935;51.120;13.132;2024-01-15T10:26:44;4.20;79.10
31307;DHT22;17935;51.120;13.132;2024-01-15T10:29:10;4.20;79.10
31307;DHT22;17935;51.120;13.132;2024-01-15T10:31:36;4.40;77.80
31307;DHT22;17935;51.120;13.132;2024-01-15T10:34:12;4.50;78.00
31307;DHT22;17935;51.120;13.132;2024-01-15T10:36:40;4.60;77.20
31307;DHT22;17935;51.120;13.132;2024-01-15T10:39:06;4.50;78.00
31307;DHT22;17935;51.120;13.132;2024-01-15T10:41:32;4.70;77.30
31307;DHT22;17935;51.120;13.132;2024-01-15T10:43:58;4.60;76.90
31307;DHT22;17935;51.120;13.132;2024-01-15T10:46:24;4.50;77.00
31307;DHT22;17935;51.120;13.132;2024-01-15T10:48:50;4.40;77.80
31307;DHT22;17935;51.120;13.132;2024-01-15T10:51:15;4.20;78.10
31307;DHT22;17935;51.120;13.132;2024-01-15T10:53:41;4.00;79.00
31307;DHT22;17935;51.120;13.132;2024-01-15T10:56:07;3.80;79.50
31307;DHT22;17935;51.120;13.132;2024-01-15T10:58:35;3.60;80.30
31307;DHT22;17935;51.120;13.132;2024-01-15T11:01:05;3.40;81.20
31307;DHT22;17935;51.120;13.132;2024-01-15T11:03:30;3.20;81.90
31307;DHT22;17935;51.120;13.132;2024-01-15T11:05:56;3.10;82.20
31307;DHT22;17935;51.120;13.132;2024-01-15T11:08:42;3.10;82.50
31307;DHT22;17935;51.120;13.132;2024-01-15T11:11:08;3.20;82.50
31307;DHT22;17935;51.120;13.132;2024-01-15T11:18:28;3.70;80.90
31307;DHT22;17935;51.120;13.132;2024-01-15T11:23:46;3.60;81.10
31307;DHT22;17935;51.120;13.132;2024-01-15T11:28:57;3.50;81.60
31307;DHT22;17935;51.120;13.132;2024-01-15T11:31:28;3.50;81.30
31307;DHT22;17935;51.120;13.132;2024-01-15T11:33:53;3.50;81.70
31307;DHT22;17935;51.120;13.132;2024-01-15T11:36:20;3.40;81.70
31307;DHT22;17935;51.120;13.132;2024-01-15T11:38:46;3.40;82.00
31307;DHT22;17935;51.120;13.132;2024-01-15T11:41:14;3.20;82.30
31307;DHT22;17935;51.120;13.132;2024-01-15T11:43:41;3.20;82.70
31307;DHT22;17935;51.120;13.132;2024-01-15T11:46:09;3.10;83.70
31307;DHT22;17935;51.120;13.132;2024-01-15T11:48:41;3.10;83.90
31307;DHT22;17935;51.120;13.132;2024-01-15T11:51:08;3.10;83.90
31307;DHT22;17935;51.120;13.132;2024-01-15T11:53:42;3.10;83.50
31307;DHT22;17935;51.120;13.132;2024-01-15T11:56:12;3.20;83.50
31307;DHT22;17935;51.120;13.132;2024-01-15T11:58:39;3.20;83.40
31307;DHT22;17935;51.120;13.132;2024-01-15T12:01:05;3.20;83.10
31307;DHT22;17935;51.120;13.132;2024-01-15T12:03:31;3.20;83.00
31307;DHT22;17935;51.120;13.132;2024-01-15T12:05:57;3.30;83.20
31307;DHT22;17935;51.120;13.132;2024-01-15T12:08:25;3.30;82.60
31307;DHT22;17935;51.120;13.132;2024-01-15T12:10:51;3.40;83.00
31307;DHT22;17935;51.120;13.132;2024-01-15T12:13:19;3.40;83.00
31307;DHT22;17935;51.120;13.132;2024-01-15T12:15:46;3.40;82.50
31307;DHT22;17935;51.120;13.132;2024-01-15T12:18:12;3.40;82.20
31307;DHT22;17935;51.120;13.132;2024-01-15T12:20:39;3.30;82.50
31307;DHT22;17935;51.120;13.132;2024-01-15T12:23:05;3.40;82.70
31307;DHT22;17935;51.120;13.132;2024-01-15T12:25:31;3.40;82.20
31307;DHT22;17935;51.120;13.132;2024-01-15T12:27:57;3.40;82.20
31307;DHT22;17935;51.120;13.132;2024-01-15T12:30:23;3.40;82.40
31307;DHT22;17935;51.120;13.132;2024-01-15T12:32:48;3.40;82.50
31307;DHT22;17935;51.120;13.132;2024-01-15T12:35:14;3.40;82.20
31307;DHT22;17935;51.120;13.132;2024-01-15T12:37:41;3.40;82.60
31307;DHT22;17935;51.120;13.132;2024-01-15T12:40:07;3.40;82.70
31307;DHT22;17935;51.120;13.132;2024-01-15T12:42:33;3.40;82.60
31307;DHT22;17935;51.120;13.132;2024-01-15T12:44:58;3.50;82.20
31307;DHT22;17935;51.120;13.132;2024-01-15T12:47:25;3.50;82.40
31307;DHT22;17935;51.120;13.132;2024-01-15T12:49:54;3.50;82.40
31307;DHT22;17935;51.120;13.132;2024-01-15T12:55:05;3.60;82.60
31307;DHT22;17935;51.120;13.132;2024-01-15T12:57:36;3.60;82.60
31307;DHT22;17935;51.120;13.132;2024-01-15T13:00:10;3.70;82.50
31307;DHT22;17935;51.120;13.132;2024-01-15T13:02:41;3.70;83.50
31307;DHT22;17935;51.120;13.132;2024-01-15T13:05:09;3.60;83.50
31307;DHT22;17935;51.120;13.132;2024-01-15T13:07:43;3.50;83.70
31307;DHT22;17935;51.120;13.132;2024-01-15T13:10:11;3.40;83.30
31307;DHT22;17935;51.120;13.132;2024-01-15T13:12:37;3.40;84.50
31307;DHT22;17935;51.120;13.132;2024-01-15T13:15:03;3.20;86.30
31307;DHT22;17935;51.120;13.132;2024-01-15T13:17:29;3.20;86.90
31307;DHT22;17935;51.120;13.132;2024-01-15T13:20:04;3.00;89.80
31307;DHT22;17935;51.120;13.132;2024-01-15T13:22:30;2.80;90.80
31307;DHT22;17935;51.120;13.132;2024-01-15T13:24:57;2.70;91.90
31307;DHT22;17935;51.120;13.132;2024-01-15T13:27:23;2.50;94.00
31307;DHT22;17935;51.120;13.132;2024-01-15T13:29:49;2.30;97.50
31307;DHT22;17935;51.120;13.132;2024-01-15T13:32:16;2.30;99.80
31307;DHT22;17935;51.120;13.132;2024-01-15T13:34:48;2.10;99.90
31307;DHT22;17935;51.120;13.132;2024-01-15T13:37:14;2.10;99.90
31307;DHT22;17935;51.120;13.132;2024-01-15T13:39:39;2.00;99.90
31307;DHT22;17935;51.120;13.132;2024-01-15T13:42:04;2.00;99.90
31307;DHT22;17935;51.120;13.132;2024-01-15T13:44:30;2.00;99.90
31307;DHT22;17935;51.120;13.132;2024-01-15T13:46:56;2.00;99.90
31307;DHT22;17935;51.120;13.132;2024-01-15T13:49:24;2.00;99.90
31307;DHT22;17935;51.120;13.132;2024-01-15T13:51:53;1.90;99.90
31307;DHT22;17935;51.120;13.132;2024-01-15T13:54:19;1.80;99.90
31307;DHT22;17935;51.120;13.132;2024-01-15T13:56:46;1.80;99.90
31307;DHT22;17935;51.120;13.132;2024-01-15T13:59:12;1.80;99.90
31307;DHT22;17935;51.120;13.132;2024-01-15T14:01:38;1.80;99.90
31307;DHT22;17935;51.120;13.132;2024-01-15T14:04:03;1.80;99.90
31307;DHT22;17935;51.120;13.132;2024-01-15T14:06:29;1.80;99.90
31307;DHT22;17935;51.120;13.132;2024-01-15T14:08:55;1.80;99.90
31307;DHT22;17935;51.120;13.132;2024-01-15T14:11:20;1.80;99.90
31307;DHT22;17935;51.120;13.132;2024-01-15T14:13:46;1.80;99.90
31307;DHT22;17935;51.120;13.132;2024-01-15T14:16:12;1.70;99.90
31307;DHT22;17935;51.120;13.132;2024-01-15T14:18:38;1.70;99.90
31307;DHT22;17935;51.120;13.132;2024-01-15T14:21:03;1.60;99.90
31307;DHT22;17935;51.120;13.132;2024-01-15T14:23:29;1.50;99.90
31307;DHT22;17935;51.120;13.132;2024-01-15T14:25:54;1.40;99.90
31307;DHT22;17935;51.120;13.132;2024-01-15T14:28:20;1.30;99.90
31307;DHT22;17935;51.120;13.132;2024-01-15T14:30:54;1.30;99.90
31307;DHT22;17935;51.120;13.132;2024-01-15T14:57:49;1.30;99.90
31307;DHT22;17935;51.120;13.132;2024-01-15T15:00:18;1.30;99.90
31307;DHT22;17935;51.120;13.132;2024-01-15T15:02:43;1.40;99.90
31307;DHT22;17935;51.120;13.132;2024-01-15T15:05:09;1.40;99.90
31307;DHT22;17935;51.120;13.132;2024-01-15T15:07:35;1.40;99.90
31307;DHT22;17935;51.120;13.132;2024-01-15T15:10:02;1.40;99.90
31307;DHT22;17935;51.120;13.132;2024-01-15T15:12:30;1.40;99.90
31307;DHT22;17935;51.120;13.132;2024-01-15T15:14:55;1.30;99.90
31307;DHT22;17935;51.120;13.132;2024-01-15T15:20:09;1.30;99.90
31307;DHT22;17935;51.120;13.132;2024-01-15T15:28:44;1.40;99.90
31307;DHT22;17935;51.120;13.132;2024-01-15T15:31:09;1.40;99.90
31307;DHT22;17935;51.120;13.132;2024-01-15T15:33:50;1.50;99.90
31307;DHT22;17935;51.120;13.132;2024-01-15T15:36:16;1.50;99.90
31307;DHT22;17935;51.120;13.132;2024-01-15T15:41:46;1.50;99.90
31307;DHT22;17935;51.120;13.132;2024-01-15T15:44:20;1.50;99.90
31307;DHT22;17935;51.120;13.132;2024-01-15T15:47:10;1.50;99.90
31307;DHT22;17935;51.120;13.132;2024-01-15T15:52:24;1.60;99.90
31307;DHT22;17935;51.120;13.132;2024-01-15T15:55:12;1.50;99.90
31307;DHT22;17935;51.120;13.132;2024-01-15T15:57:47;1.50;99.90
31307;DHT22;17935;51.120;13.132;2024-01-15T16:00:45;1.50;99.90
31307;DHT22;17935;51.120;13.132;2024-01-15T16:03:25;1.50;99.90
31307;DHT22;17935;51.120;13.132;2024-01-15T16:06:00;1.60;99.90
31307;DHT22;17935;51.120;13.132;2024-01-15T16:11:19;1.50;99.90
31307;DHT22;17935;51.120;13.132;2024-01-15T16:14:05;1.50;99.90
31307;DHT22;17935;51.120;13.132;2024-01-15T16:16:33;1.50;99.90
31307;DHT22;17935;51.120;13.132;2024-01-15T16:18:59;1.50;99.90
31307;DHT22;17935;51.120;13.132;2024-01-15T16:21:24;1.50;99.90
31307;DHT22;17935;51.120;13.132;2024-01-15T16:23:51;1.40;99.90
31307;DHT22;17935;51.120;13.132;2024-01-15T16:26:17;1.30;99.90
31307;DHT22;17935;51.120;13.132;2024-01-15T16:28:42;1.30;99.90
31307;DHT22;17935;51.120;13.132;2024-01-15T16:31:08;1.20;99.90
31307;DHT22;17935;51.120;13.132;2024-01-15T16:33:34;1.20;99.90
31307;DHT22;17935;51.120;13.132;2024-01-15T16:36:00;1.20;99.90
31307;DHT22;17935;51.120;13.132;2024-01-15T16:38:25;1.10;99.90
31307;DHT22;17935;51.120;13.132;2024-01-15T16:40:51;1.20;99.90
31307;DHT22;17935;51.120;13.132;2024-01-15T16:43:17;1.20;99.90
31307;DHT22;17935;51.120;13.132;2024-01-15T16:45:43;1.20;99.90
31307;DHT22;17935;51.120;13.132;2024-01-15T16:48:08;1.20;99.90
31307;DHT22;17935;51.120;13.132;2024-01-15T16:50:34;1.30;99.90
31307;DHT22;17935;51.120;13.132;2024-01-15T16:53:02;1.30;99.90
31307;DHT22;17935;51.120;13.132;2024-01-15T16:55:27;1.40;99.90
31307;DHT22;17935;51.120;13.132;2024-01-15T16:57:53;1.40;99.90
31307;DHT22;17935;51.120;13.132;2024-01-15T17:00:18;1.40;99.90
31307;DHT22;17935;51.120;13.132;2024-01-15T17:02:44;1.40;99.90
31307;DHT22;17935;51.120;13.132;2024-01-15T17:05:09;1.50;99.90
31307;DHT22;17935;51.120;13.132;2024-01-15T17:07:35;1.50;99.90
31307;DHT22;17935;51.120;13.132;2024-01-15T17:10:01;1.60;99.90
31307;DHT22;17935;51.120;13.132;2024-01-15T17:12:27;1.60;99.90
31307;DHT22;17935;51.120;13.132;2024-01-15T17:14:53;1.70;99.90
31307;DHT22;17935;51.120;13.132;2024-01-15T17:17:18;1.70;99.90
31307;DHT22;17935;51.120;13.132;2024-01-15T17:19:45;1.70;99.90
31307;DHT22;17935;51.120;13.132;2024-01-15T17:22:10;1.70;99.90
31307;DHT22;17935;51.120;13.132;2024-01-15T17:24:35;1.70;99.90
31307;DHT22;17935;51.120;13.132;2024-01-15T17:27:01;1.70;99.90
31307;DHT22;17935;51.120;13.132;2024-01-15T17:29:27;1.70;99.90
31307;DHT22;17935;51.120;13.132;2024-01-15T17:31:54;1.70;99.90
31307;DHT22;17935;51.120;13.132;2024-01-15T17:34:19;1.70;99.90
31307;DHT22;17935;51.120;13.132;2024-01-15T17:36:45;1.70;99.90
31307;DHT22;17935;51.120;13.132;2024-01-15T17:39:11;1.70;99.90
31307;DHT22;17935;51.120;13.132;2024-01-15T17:41:36;1.60;99.90
31307;DHT22;17935;51.120;13.132;2024-01-15T17:44:04;1.60;99.90
31307;DHT22;17935;51.120;13.132;2024-01-15T17:46:31;1.60;99.90
31307;DHT22;17935;51.120;13.132;2024-01-15T17:51:30;1.60;99.90
31307;DHT22;17935;51.120;13.132;2024-01-15T18:22:23;1.00;99.90
31307;DHT22;17935;51.120;13.132;2024-01-15T18:24:49;0.90;99.90
31307;DHT22;17935;51.120;13.132;2024-01-15T18:27:15;1.00;99.90
31307;DHT22;17935;51.120;13.132;2024-01-15T18:29:42;1.00;99.90
31307;DHT22;17935;51.120;13.132;2024-01-15T18:32:08;0.90;99.90
31307;DHT22;17935;51.120;13.132;2024-01-15T18:34:35;1.00;99.90
31307;DHT22;17935;51.120;13.132;2024-01-15T18:37:01;1.00;99.90
31307;DHT22;17935;51.120;13.132;2024-01-15T18:39:31;1.00;99.90
31307;DHT22;17935;51.120;13.132;2024-01-15T18:41:56;1.00;99.90
31307;DHT22;17935;51.120;13.132;2024-01-15T18:44:22;0.90;99.90
31307;DHT22;17935;51.120;13.132;2024-01-15T18:46:48;0.90;99.90
31307;DHT22;17935;51.120;13.132;2024-01-15T18:49:13;0.80;99.90
31307;DHT22;17935;51.120;13.132;2024-01-15T18:51:39;0.80;99.90
31307;DHT22;17935;51.120;13.132;2024-01-15T18:54:05;0.80;99.90
31307;DHT22;17935;51.120;13.132;2024-01-15T18:56:31;0.80;99.90
31307;DHT22;17935;51.120;13.132;2024-01-15T18:58:57;0.80;99.90
31307;DHT22;17935;51.120;13.132;2024-01-15T19:01:26;0.70;99.90
31307;DHT22;17935;51.120;13.132;2024-01-15T19:03:52;0.70;99.90
31307;DHT22;17935;51.120;13.132;2024-01-15T19:06:18;0.70;99.90
31307;DHT22;17935;51.120;13.132;2024-01-15T19:08:43;0.70;99.90
31307;DHT22;17935;51.120;13.132;2024-01-15T19:11:09;0.70;99.90
31307;DHT22;17935;51.120;13.132;2024-01-15T19:13:35;0.60;99.90
31307;DHT22;17935;51.120;13.132;2024-01-15T19:16:01;0.70;99.90
31307;DHT22;17935;51.120;13.132;2024-01-15T19:18:27;0.70;99.90
31307;DHT22;17935;51.120;13.132;2024-01-15T19:23:28;0.60;99.90
31307;DHT22;17935;51.120;13.132;2024-01-15T19:25:55;0.60;99.90
31307;DHT22;17935;51.120;13.132;2024-01-15T19:28:21;0.60;99.90
31307;DHT22;17935;51.120;13.132;2024-01-15T19:30:47;0.60;99.90
31307;DHT22;17935;51.120;13.132;2024-01-15T19:33:33;0.60;99.90
31307;DHT22;17935;51.120;13.132;2024-01-15T19:42:00;0.60;99.90
31307;DHT22;17935;51.120;13.132;2024-01-15T19:47:29;0.70;99.90
31307;DHT22;17935;51.120;13.132;2024-01-15T19:49:55;0.70;99.90
31307;DHT22;17935;51.120;13.132;2024-01-15T19:52:21;0.80;99.90
31307;DHT22;17935;51.120;13.132;2024-01-15T19:54:46;0.70;99.90
31307;DHT22;17935;51.120;13.132;2024-01-15T19:57:14;0.70;99.90
31307;DHT22;17935;51.120;13.132;2024-01-15T19:59:45;0.70;99.90
31307;DHT22;17935;51.120;13.132;2024-01-15T20:02:13;0.60;99.90
31307;DHT22;17935;51.120;13.132;2024-01-15T20:04:42;0.60;99.90
31307;DHT22;17935;51.120;13.132;2024-01-15T20:07:10;0.60;99.90
31307;DHT22;17935;51.120;13.132;2024-01-15T20:09:36;0.60;99.90
31307;DHT22;17935;51.120;13.132;2024-01-15T20:12:03;0.60;99.90
31307;DHT22;17935;51.120;13.132;2024-01-15T20:14:29;0.60;99.90
31307;DHT22;17935;51.120;13.132;2024-01-15T20:16:56;0.70;99.90
31307;DHT22;17935;51.120;13.132;2024-01-15T20:19:22;0.70;99.90
31307;DHT22;17935;51.120;13.132;2024-01-15T20:21:47;0.70;99.90
31307;DHT22;17935;51.120;13.132;2024-01-15T20:24:14;0.70;99.90
31307;DHT22;17935;51.120;13.132;2024-01-15T20:26:39;0.60;99.90
31307;DHT22;17935;51.120;13.132;2024-01-15T20:29:23;0.70;99.90
31307;DHT22;17935;51.120;13.132;2024-01-15T20:32:12;0.70;99.90
31307;DHT22;17935;51.120;13.132;2024-01-15T20:34:45;0.70;99.90
31307;DHT22;17935;51.120;13.132;2024-01-15T20:37:14;0.70;99.90
31307;DHT22;17935;51.120;13.132;2024-01-15T20:39:40;0.70;99.90
31307;DHT22;17935;51.120;13.132;2024-01-15T20:42:06;0.70;99.90
31307;DHT22;17935;51.120;13.132;2024-01-15T20:44:32;0.70;99.90
31307;DHT22;17935;51.120;13.132;2024-01-15T20:46:58;0.70;99.90
31307;DHT22;17935;51.120;13.132;2024-01-15T20:49:23;0.70;99.90
31307;DHT22;17935;51.120;13.132;2024-01-15T20:51:51;0.70;99.90
31307;DHT22;17935;51.120;13.132;2024-01-15T20:54:20;0.70;99.90
31307;DHT22;17935;51.120;13.132;2024-01-15T20:57:06;0.70;99.90
31307;DHT22;17935;51.120;13.132;2024-01-15T20:59:32;0.70;99.90
31307;DHT22;17935;51.120;13.132;2024-01-15T21:05:06;0.70;99.90
